Time;durP1;ratioP1;P1;durP2;ratioP2;P2;SDS_P1;SDS_P2;PMS_P1;PMS_P2;Temp;Humidity;BMP_temperature;BMP_pressure;BME280_temperature;BME280_humidity;BME280_pressure;Samples;Min_cycle;Max_cycle;Signal;HPM_P1;HPM_P2
2023/04/28 00:00:39;;;;;;;;;;;22.00;56.00;;;;;;1591947;73;1936;-60
2023/04/28 00:02:41;;;;;;;;;;;22.10;56.20;;;;;;1587066;73;1359;-60
2023/04/28 00:04:42;;;;;;;;;;;22.10;56.10;;;;;;1590844;73;1183;-60
2023/04/28 00:06:45;;;;;;;;;;;22.10;56.10;;;;;;1592572;73;712;-60
2023/04/28 00:08:47;;;;;;;;;;;22.10;56.00;;;;;;1594708;73;710;-62
2023/04/28 00:10:48;;;;;;;;;;;22.10;55.90;;;;;;1585884;74;592;-62
2023/04/28 00:12:50;;;;;;;;;;;22.00;55.80;;;;;;1583476;73;778;-62
2023/04/28 00:14:52;;;;;;;;;;;22.10;55.90;;;;;;1599411;73;1154;-62
2023/04/28 00:16:56;;;;;;;;;;;22.10;56.00;;;;;;1551151;74;1442;-61
2023/04/28 00:18:58;;;;;;;;;;;22.10;56.00;;;;;;1578510;73;890;-62
2023/04/28 00:21:00;;;;;;;;;;;22.10;55.80;;;;;;1574526;74;1927;-61
2023/04/28 00:23:02;;;;;;;;;;;22.10;55.80;;;;;;1570735;73;755;-61
2023/04/28 00:25:04;;;;;;;;;;;22.10;55.60;;;;;;1585638;73;1197;-61
2023/04/28 00:27:06;;;;;;;;;;;22.10;55.60;;;;;;1577721;73;664;-60
2023/04/28 00:29:08;;;;;;;;;;;22.10;55.80;;;;;;1579428;73;708;-61
2023/04/28 00:31:15;;;;;;;;;;;22.10;55.60;;;;;;1586363;73;1435;-61
2023/04/28 00:33:14;;;;;;;;;;;22.10;55.70;;;;;;1573058;73;1643;-61
2023/04/28 00:35:16;;;;;;;;;;;22.10;55.70;;;;;;1589485;73;1143;-62
2023/04/28 00:37:18;;;;;;;;;;;22.00;55.90;;;;;;1594150;73;700;-62
2023/04/28 00:39:22;;;;;;;;;;;22.00;55.70;;;;;;1588837;74;761;-60
2023/04/28 00:41:23;;;;;;;;;;;22.10;56.00;;;;;;1584234;73;1946;-60
2023/04/28 00:43:25;;;;;;;;;;;22.00;55.70;;;;;;1581894;74;618;-60
2023/04/28 00:45:27;;;;;;;;;;;22.00;55.60;;;;;;1586997;73;1536;-60
2023/04/28 00:47:29;;;;;;;;;;;22.10;55.80;;;;;;1592692;73;709;-61
2023/04/28 00:49:32;;;;;;;;;;;22.10;56.00;;;;;;1584459;73;763;-62
2023/04/28 00:51:34;;;;;;;;;;;22.10;55.90;;;;;;1595581;74;682;-60
2023/04/28 00:53:36;;;;;;;;;;;22.00;55.80;;;;;;1587508;73;686;-60
2023/04/28 00:55:38;;;;;;;;;;;22.10;55.90;;;;;;1584772;73;1186;-61
2023/04/28 00:57:40;;;;;;;;;;;22.10;55.70;;;;;;1594216;73;1430;-60
2023/04/28 00:59:42;;;;;;;;;;;22.10;55.60;;;;;;1580083;73;773;-61
2023/04/28 01:01:44;;;;;;;;;;;22.10;55.70;;;;;;1584103;73;1942;-59
2023/04/28 01:03:46;;;;;;;;;;;22.10;55.50;;;;;;1579358;73;711;-59
2023/04/28 01:05:48;;;;;;;;;;;22.10;55.50;;;;;;1591332;73;1179;-59
2023/04/28 01:07:50;;;;;;;;;;;22.10;55.40;;;;;;1590131;73;731;-60
2023/04/28 01:09:51;;;;;;;;;;;22.10;55.30;;;;;;1590782;73;796;-61
2023/04/28 01:11:54;;;;;;;;;;;22.10;55.20;;;;;;1592283;73;1424;-60
2023/04/28 01:13:58;;;;;;;;;;;22.10;55.20;;;;;;1589480;73;697;-60
2023/04/28 01:15:59;;;;;;;;;;;22.10;55.20;;;;;;1585343;73;1680;-60
2023/04/28 01:18:01;;;;;;;;;;;22.20;55.20;;;;;;1595053;73;759;-60
2023/04/28 01:20:03;;;;;;;;;;;22.10;55.20;;;;;;1588069;73;784;-60
2023/04/28 01:22:05;;;;;;;;;;;22.10;55.00;;;;;;1577745;73;1937;-60
2023/04/28 01:24:07;;;;;;;;;;;22.20;55.10;;;;;;1576952;73;610;-60
2023/04/28 01:26:09;;;;;;;;;;;22.20;55.10;;;;;;1592395;73;1363;-60
2023/04/28 01:28:11;;;;;;;;;;;22.10;55.20;;;;;;1581892;73;822;-60
2023/04/28 01:30:13;;;;;;;;;;;22.00;55.20;;;;;;1592491;73;774;-60
2023/04/28 01:32:15;;;;;;;;;;;22.00;55.30;;;;;;1591092;73;626;-60
2023/04/28 01:34:17;;;;;;;;;;;22.00;55.40;;;;;;1583508;73;706;-60
2023/04/28 01:36:19;;;;;;;;;;;22.00;55.40;;;;;;1581359;73;1183;-61
2023/04/28 01:38:20;;;;;;;;;;;22.00;55.40;;;;;;1591775;73;783;-59
2023/04/28 01:40:22;;;;;;;;;;;22.00;55.50;;;;;;1579480;73;1433;-60
2023/04/28 01:42:24;;;;;;;;;;;22.00;55.40;;;;;;1577809;73;1938;-60
2023/04/28 01:44:26;;;;;;;;;;;22.00;55.40;;;;;;1584226;73;708;-59
2023/04/28 01:46:28;;;;;;;;;;;22.00;55.40;;;;;;1590928;74;1251;-60
2023/04/28 01:48:30;;;;;;;;;;;22.00;55.40;;;;;;1587984;73;635;-60
2023/04/28 01:50:32;;;;;;;;;;;22.00;55.50;;;;;;1578131;73;749;-60
2023/04/28 01:52:34;;;;;;;;;;;22.00;55.50;;;;;;1588291;73;783;-60
2023/04/28 01:54:36;;;;;;;;;;;22.00;55.60;;;;;;1580349;73;1447;-63
2023/04/28 01:56:38;;;;;;;;;;;22.00;55.60;;;;;;1585840;73;1196;-62
2023/04/28 01:58:40;;;;;;;;;;;21.90;55.80;;;;;;1583011;73;712;-62
2023/04/28 02:00:42;;;;;;;;;;;21.90;55.90;;;;;;1588661;73;769;-59
2023/04/28 02:02:43;;;;;;;;;;;21.90;55.90;;;;;;1583429;73;1937;-61
2023/04/28 02:04:45;;;;;;;;;;;22.00;55.80;;;;;;1601238;73;1178;-61
2023/04/28 02:06:47;;;;;;;;;;;21.90;55.90;;;;;;1590870;73;624;-63
2023/04/28 02:08:49;;;;;;;;;;;21.90;56.00;;;;;;1585976;73;1449;-62
2023/04/28 02:10:51;;;;;;;;;;;21.90;56.00;;;;;;1576369;73;760;-60
2023/04/28 02:12:53;;;;;;;;;;;21.90;56.00;;;;;;1589182;73;785;-61
2023/04/28 02:14:55;;;;;;;;;;;21.90;56.30;;;;;;1591412;73;1157;-61
2023/04/28 02:16:59;;;;;;;;;;;21.90;56.20;;;;;;1579325;74;716;-61
2023/04/28 02:19:00;;;;;;;;;;;21.90;56.20;;;;;;1577923;73;1125;-62
2023/04/28 02:21:13;;;;;;;;;;;21.90;56.30;;;;;;1583681;74;790;-63
2023/04/28 02:23:14;;;;;;;;;;;21.90;56.30;;;;;;1593159;73;1510;-63
2023/04/28 02:25:16;;;;;;;;;;;21.90;56.20;;;;;;1580554;73;1176;-60
2023/04/28 02:27:18;;;;;;;;;;;21.90;56.10;;;;;;1584939;73;710;-60
2023/04/28 02:29:20;;;;;;;;;;;21.90;56.10;;;;;;1580097;74;747;-61
2023/04/28 02:31:22;;;;;;;;;;;21.90;56.30;;;;;;1580303;73;780;-63
2023/04/28 02:33:24;;;;;;;;;;;21.90;56.20;;;;;;1592765;73;672;-61
2023/04/28 02:35:26;;;;;;;;;;;22.00;56.30;;;;;;1585558;73;1156;-62
2023/04/28 02:37:28;;;;;;;;;;;21.90;56.20;;;;;;1592144;73;1472;-61
2023/04/28 02:39:31;;;;;;;;;;;22.00;56.20;;;;;;1586499;73;741;-62
2023/04/28 02:41:33;;;;;;;;;;;21.90;56.50;;;;;;1585856;73;1952;-62
2023/04/28 02:43:36;;;;;;;;;;;21.90;56.60;;;;;;1582972;73;695;-62
2023/04/28 02:45:39;;;;;;;;;;;21.90;56.80;;;;;;1590958;73;1241;-62
2023/04/28 02:47:40;;;;;;;;;;;21.90;56.70;;;;;;1575875;73;679;-62
2023/04/28 02:49:42;;;;;;;;;;;21.90;56.60;;;;;;1593881;73;670;-62
2023/04/28 02:51:44;;;;;;;;;;;21.90;56.50;;;;;;1589896;73;1412;-61
2023/04/28 02:53:46;;;;;;;;;;;21.90;56.30;;;;;;1583663;73;700;-61
2023/04/28 02:55:48;;;;;;;;;;;21.90;56.20;;;;;;1591263;73;1167;-62
2023/04/28 02:57:50;;;;;;;;;;;21.90;56.20;;;;;;1586913;73;688;-63
2023/04/28 02:59:52;;;;;;;;;;;22.00;56.30;;;;;;1589348;74;819;-62
2023/04/28 03:01:54;;;;;;;;;;;21.90;56.30;;;;;;1577332;73;1934;-62
2023/04/28 03:03:56;;;;;;;;;;;21.90;56.30;;;;;;1593394;73;734;-64
2023/04/28 03:05:57;;;;;;;;;;;21.90;56.20;;;;;;1578182;73;1444;-62
2023/04/28 03:07:59;;;;;;;;;;;21.90;56.20;;;;;;1595579;73;712;-63
2023/04/28 03:10:01;;;;;;;;;;;21.90;56.10;;;;;;1594423;73;718;-62
2023/04/28 03:12:03;;;;;;;;;;;21.90;56.00;;;;;;1584648;73;694;-62
2023/04/28 03:14:05;;;;;;;;;;;22.00;56.00;;;;;;1585559;73;698;-62
2023/04/28 03:16:07;;;;;;;;;;;21.90;56.00;;;;;;1591264;73;1179;-64
2023/04/28 03:18:09;;;;;;;;;;;22.00;55.80;;;;;;1593768;73;675;-64
2023/04/28 03:20:11;;;;;;;;;;;22.00;55.80;;;;;;1578505;73;1594;-62
2023/04/28 03:22:13;;;;;;;;;;;21.90;55.80;;;;;;1592071;73;1929;-65
2023/04/28 03:24:15;;;;;;;;;;;22.00;56.20;;;;;;1593648;73;959;-61
2023/04/28 03:26:17;;;;;;;;;;;21.90;56.30;;;;;;1578600;73;1171;-62
2023/04/28 03:28:19;;;;;;;;;;;22.00;56.40;;;;;;1586919;73;701;-63
2023/04/28 03:30:21;;;;;;;;;;;22.00;56.30;;;;;;1589879;73;709;-61
2023/04/28 03:32:23;;;;;;;;;;;21.90;56.30;;;;;;1593532;73;1443;-62
2023/04/28 03:34:25;;;;;;;;;;;21.90;56.10;;;;;;1582842;73;777;-61
2023/04/28 03:36:27;;;;;;;;;;;22.00;56.10;;;;;;1586601;73;1174;-63
2023/04/28 03:38:29;;;;;;;;;;;21.90;56.30;;;;;;1595385;73;689;-64
2023/04/28 03:40:31;;;;;;;;;;;22.00;56.40;;;;;;1585397;73;748;-64
2023/04/28 03:42:33;;;;;;;;;;;21.90;56.60;;;;;;1588598;73;1946;-62
2023/04/28 03:44:35;;;;;;;;;;;21.90;56.40;;;;;;1588700;73;783;-62
2023/04/28 03:46:36;;;;;;;;;;;22.00;56.30;;;;;;1583161;73;1487;-61
2023/04/28 03:48:38;;;;;;;;;;;21.90;56.30;;;;;;1580284;73;749;-60
2023/04/28 03:50:41;;;;;;;;;;;22.00;56.00;;;;;;1582832;73;680;-61
2023/04/28 03:52:43;;;;;;;;;;;22.00;56.30;;;;;;1595751;73;635;-61
2023/04/28 03:54:45;;;;;;;;;;;21.90;56.10;;;;;;1585338;73;1119;-61
2023/04/28 03:56:46;;;;;;;;;;;22.00;56.10;;;;;;1591940;73;736;-61
2023/04/28 03:58:48;;;;;;;;;;;21.90;56.10;;;;;;1586061;73;616;-61
2023/04/28 04:00:50;;;;;;;;;;;21.90;56.50;;;;;;1583723;73;1429;-64
2023/04/28 04:02:52;;;;;;;;;;;22.00;56.20;;;;;;1580125;73;1937;-61
2023/04/28 04:04:54;;;;;;;;;;;21.90;56.10;;;;;;1591718;73;1171;-61
2023/04/28 04:06:56;;;;;;;;;;;21.90;56.00;;;;;;1587675;73;728;-65
2023/04/28 04:08:58;;;;;;;;;;;21.90;56.00;;;;;;1581707;73;701;-62
2023/04/28 04:11:00;;;;;;;;;;;21.90;56.50;;;;;;1594055;73;693;-61
2023/04/28 04:13:02;;;;;;;;;;;21.90;56.50;;;;;;1584828;73;669;-62
2023/04/28 04:15:04;;;;;;;;;;;21.90;56.70;;;;;;1585971;73;1398;-63
2023/04/28 04:17:05;;;;;;;;;;;21.90;56.80;;;;;;1579384;73;594;-63
2023/04/28 04:19:07;;;;;;;;;;;21.90;56.70;;;;;;1582476;73;735;-61
2023/04/28 04:21:09;;;;;;;;;;;21.90;57.00;;;;;;1599727;74;722;-62
2023/04/28 04:23:11;;;;;;;;;;;21.90;56.90;;;;;;1587770;73;1924;-63
2023/04/28 04:25:13;;;;;;;;;;;21.80;56.70;;;;;;1572764;73;1178;-62
2023/04/28 04:27:15;;;;;;;;;;;21.90;57.20;;;;;;1590189;73;768;-62
2023/04/28 04:29:17;;;;;;;;;;;21.80;56.90;;;;;;1580006;73;1456;-62
2023/04/28 04:31:19;;;;;;;;;;;21.80;56.90;;;;;;1582527;73;605;-61
2023/04/28 04:33:21;;;;;;;;;;;21.80;56.90;;;;;;1577686;73;721;-62
2023/04/28 04:35:23;;;;;;;;;;;21.80;56.90;;;;;;1583943;73;1180;-63
2023/04/28 04:37:25;;;;;;;;;;;21.90;56.80;;;;;;1583871;73;760;-62
2023/04/28 04:39:26;;;;;;;;;;;21.80;56.70;;;;;;1586228;73;723;-61
2023/04/28 04:41:28;;;;;;;;;;;21.80;56.80;;;;;;1582732;73;656;-61
2023/04/28 04:43:30;;;;;;;;;;;21.90;56.70;;;;;;1593455;73;1941;-63
2023/04/28 04:45:32;;;;;;;;;;;21.90;56.50;;;;;;1585926;73;1246;-62
2023/04/28 04:47:34;;;;;;;;;;;21.90;56.70;;;;;;1580934;73;775;-61
2023/04/28 04:49:36;;;;;;;;;;;21.90;56.50;;;;;;1583051;73;749;-64
2023/04/28 04:51:38;;;;;;;;;;;21.90;56.50;;;;;;1585276;73;716;-64
2023/04/28 04:53:40;;;;;;;;;;;21.90;56.60;;;;;;1590360;73;725;-63
2023/04/28 04:55:42;;;;;;;;;;;21.90;56.80;;;;;;1590314;73;1167;-65
2023/04/28 04:57:43;;;;;;;;;;;21.90;56.90;;;;;;1584229;73;1436;-62
2023/04/28 04:59:45;;;;;;;;;;;21.80;56.90;;;;;;1591026;73;760;-63
2023/04/28 05:01:47;;;;;;;;;;;21.80;57.10;;;;;;1572654;73;645;-63
2023/04/28 05:03:49;;;;;;;;;;;21.80;57.10;;;;;;1587579;73;1940;-65
2023/04/28 05:05:51;;;;;;;;;;;21.80;57.10;;;;;;1585813;73;1227;-64
2023/04/28 05:07:53;;;;;;;;;;;21.70;57.00;;;;;;1577360;73;642;-63
2023/04/28 05:09:55;;;;;;;;;;;21.80;57.10;;;;;;1591514;73;767;-63
2023/04/28 05:11:57;;;;;;;;;;;21.70;57.10;;;;;;1591087;73;1467;-63
2023/04/28 05:13:58;;;;;;;;;;;21.70;57.10;;;;;;1576325;73;710;-64
2023/04/28 05:16:00;;;;;;;;;;;21.60;57.10;;;;;;1587881;73;1127;-64
2023/04/28 05:18:08;;;;;;;;;;;21.70;57.10;;;;;;1594895;73;736;-65
2023/04/28 05:20:06;;;;;;;;;;;21.70;57.20;;;;;;1594731;73;1561;-62
2023/04/28 05:22:08;;;;;;;;;;;21.70;57.10;;;;;;1578623;73;705;-63
2023/04/28 05:24:10;;;;;;;;;;;21.70;57.20;;;;;;1573553;73;1927;-63
2023/04/28 05:26:12;;;;;;;;;;;21.70;57.00;;;;;;1582250;73;1499;-63
2023/04/28 05:28:14;;;;;;;;;;;21.70;57.10;;;;;;1585420;73;753;-62
2023/04/28 05:30:16;;;;;;;;;;;21.80;57.00;;;;;;1591131;73;694;-63
2023/04/28 05:32:17;;;;;;;;;;;21.80;56.70;;;;;;1602871;73;604;-62
2023/04/28 05:34:19;;;;;;;;;;;21.80;57.10;;;;;;1588638;73;740;-64
2023/04/28 05:36:21;;;;;;;;;;;21.80;56.60;;;;;;1587705;73;1223;-62
2023/04/28 05:38:23;;;;;;;;;;;21.80;57.00;;;;;;1589998;73;764;-62
2023/04/28 05:40:26;;;;;;;;;;;21.80;56.50;;;;;;1587892;73;1542;-62
2023/04/28 05:42:28;;;;;;;;;;;21.80;56.40;;;;;;1581303;73;1936;-63
2023/04/28 05:44:30;;;;;;;;;;;21.90;56.50;;;;;;1574376;73;689;-67
2023/04/28 05:46:32;;;;;;;;;;;21.90;56.40;;;;;;1592098;73;1187;-63
2023/04/28 05:48:34;;;;;;;;;;;21.90;56.40;;;;;;1584919;73;805;-64
2023/04/28 05:50:36;;;;;;;;;;;21.80;56.40;;;;;;1593101;73;791;-64
2023/04/28 05:52:38;;;;;;;;;;;21.80;56.50;;;;;;1577929;73;712;-64
2023/04/28 05:54:40;;;;;;;;;;;21.80;56.40;;;;;;1577635;73;1472;-64
2023/04/28 05:56:42;;;;;;;;;;;21.80;56.40;;;;;;1578471;73;1143;-64
2023/04/28 05:58:44;;;;;;;;;;;21.80;56.40;;;;;;1580306;73;672;-64
2023/04/28 06:00:46;;;;;;;;;;;21.80;56.30;;;;;;1585432;73;778;-66
2023/04/28 06:02:47;;;;;;;;;;;21.80;56.40;;;;;;1583841;73;1925;-63
2023/04/28 06:04:49;;;;;;;;;;;21.90;56.50;;;;;;1576056;73;1193;-62
2023/04/28 06:06:51;;;;;;;;;;;21.90;56.40;;;;;;1554467;75;638;-62
2023/04/28 06:08:53;;;;;;;;;;;21.90;56.30;;;;;;1592072;73;1418;-63
2023/04/28 06:10:55;;;;;;;;;;;21.90;56.30;;;;;;1603925;73;794;-62
2023/04/28 06:12:57;;;;;;;;;;;21.90;56.50;;;;;;1584767;73;688;-62
2023/04/28 06:14:59;;;;;;;;;;;21.80;56.70;;;;;;1573635;73;1171;-62
2023/04/28 06:17:01;;;;;;;;;;;21.80;56.70;;;;;;1577278;73;716;-62
2023/04/28 06:19:03;;;;;;;;;;;21.90;56.70;;;;;;1574737;73;619;-62
2023/04/28 06:21:04;;;;;;;;;;;21.80;56.60;;;;;;1579319;74;695;-61
2023/04/28 06:23:07;;;;;;;;;;;21.80;56.50;;;;;;1584090;73;1933;-62
2023/04/28 06:25:09;;;;;;;;;;;21.80;56.70;;;;;;1596355;73;1179;-61
2023/04/28 06:27:11;;;;;;;;;;;21.80;56.60;;;;;;1584034;74;746;-61
2023/04/28 06:29:13;;;;;;;;;;;21.80;56.40;;;;;;1580698;73;727;-61
2023/04/28 06:31:15;;;;;;;;;;;21.80;56.70;;;;;;1593407;74;745;-62
2023/04/28 06:33:17;;;;;;;;;;;21.80;56.70;;;;;;1589629;73;752;-62
2023/04/28 06:35:19;;;;;;;;;;;21.80;56.80;;;;;;1586067;73;1461;-61
2023/04/28 06:37:21;;;;;;;;;;;21.80;57.00;;;;;;1576926;73;707;-63
2023/04/28 06:39:23;;;;;;;;;;;21.80;57.30;;;;;;1588175;73;668;-62
2023/04/28 06:41:25;;;;;;;;;;;21.80;57.20;;;;;;1602258;73;758;-62
2023/04/28 06:43:26;;;;;;;;;;;21.90;57.30;;;;;;1598397;73;1936;-62
2023/04/28 06:45:28;;;;;;;;;;;21.80;57.30;;;;;;1599543;73;1134;-62
2023/04/28 06:47:30;;;;;;;;;;;21.80;57.20;;;;;;1586807;73;614;-62
2023/04/28 06:49:32;;;;;;;;;;;21.90;57.10;;;;;;1592821;73;1458;-64
2023/04/28 06:51:34;;;;;;;;;;;21.90;57.10;;;;;;1587343;73;744;-63
2023/04/28 06:53:36;;;;;;;;;;;21.90;57.30;;;;;;1589228;73;781;-63
2023/04/28 06:55:38;;;;;;;;;;;21.90;57.20;;;;;;1590231;73;1163;-62
2023/04/28 06:57:41;;;;;;;;;;;21.90;57.20;;;;;;1585652;73;725;-60
2023/04/28 06:59:43;;;;;;;;;;;21.90;56.90;;;;;;1589406;73;708;-61
2023/04/28 07:01:45;;;;;;;;;;;22.00;56.60;;;;;;1577229;73;671;-60
2023/04/28 07:03:47;;;;;;;;;;;22.00;56.40;;;;;;1592437;73;1933;-61
2023/04/28 07:05:49;;;;;;;;;;;22.00;55.90;;;;;;1590432;73;1196;-62
2023/04/28 07:07:51;;;;;;;;;;;22.00;55.40;;;;;;1580485;73;711;-62
2023/04/28 07:09:52;;;;;;;;;;;22.00;55.00;;;;;;1583953;73;719;-61
2023/04/28 07:11:54;;;;;;;;;;;21.90;54.50;;;;;;1594695;73;770;-62
2023/04/28 07:13:56;;;;;;;;;;;22.00;54.00;;;;;;1586433;73;797;-62
2023/04/28 07:15:58;;;;;;;;;;;22.00;53.70;;;;;;1581316;73;1136;-62
2023/04/28 07:18:00;;;;;;;;;;;22.00;53.40;;;;;;1584898;73;1447;-61
2023/04/28 07:20:03;;;;;;;;;;;22.00;53.10;;;;;;1593634;73;981;-62
2023/04/28 07:22:05;;;;;;;;;;;22.00;52.80;;;;;;1598852;73;1091;-61
2023/04/28 07:24:07;;;;;;;;;;;22.00;52.60;;;;;;1590230;73;1941;-61
2023/04/28 07:26:08;;;;;;;;;;;22.00;52.30;;;;;;1598927;73;1382;-61
2023/04/28 07:28:11;;;;;;;;;;;22.10;52.20;;;;;;1583177;73;1335;-62
2023/04/28 07:30:13;;;;;;;;;;;22.00;52.00;;;;;;1574615;73;1093;-62
2023/04/28 07:32:15;;;;;;;;;;;22.00;51.80;;;;;;1585836;73;1373;-62
2023/04/28 07:34:16;;;;;;;;;;;22.00;51.60;;;;;;1586979;73;1365;-62
2023/04/28 07:36:18;;;;;;;;;;;22.00;51.50;;;;;;1589881;73;1226;-61
2023/04/28 07:38:20;;;;;;;;;;;22.00;51.20;;;;;;1588391;73;1357;-62
2023/04/28 07:40:22;;;;;;;;;;;22.00;51.30;;;;;;1585405;73;1341;-61
2023/04/28 07:42:24;;;;;;;;;;;21.90;51.00;;;;;;1588870;73;1331;-61
2023/04/28 07:44:26;;;;;;;;;;;21.90;50.90;;;;;;1589209;73;1957;-63
2023/04/28 07:46:28;;;;;;;;;;;21.90;50.80;;;;;;1583226;74;1355;-61
2023/04/28 07:48:31;;;;;;;;;;;21.90;50.80;;;;;;1600550;73;1347;-61
2023/04/28 07:50:33;;;;;;;;;;;21.90;50.60;;;;;;1587064;73;1358;-61
2023/04/28 07:52:35;;;;;;;;;;;21.90;50.50;;;;;;1583204;73;1348;-61
2023/04/28 07:54:37;;;;;;;;;;;21.90;50.40;;;;;;1584168;73;1380;-62
2023/04/28 07:56:39;;;;;;;;;;;21.90;50.30;;;;;;1582625;73;1376;-61
2023/04/28 07:58:40;;;;;;;;;;;21.90;50.30;;;;;;1582315;73;1362;-61
2023/04/28 08:00:42;;;;;;;;;;;21.90;50.20;;;;;;1596117;73;1334;-62
2023/04/28 08:02:44;;;;;;;;;;;21.90;50.10;;;;;;1589721;73;1092;-61
2023/04/28 08:04:46;;;;;;;;;;;21.90;50.20;;;;;;1595826;73;1938;-61
2023/04/28 08:06:48;;;;;;;;;;;21.90;50.10;;;;;;1594705;73;1365;-61
2023/04/28 08:08:50;;;;;;;;;;;21.90;50.10;;;;;;1578188;73;1361;-61
2023/04/28 08:10:53;;;;;;;;;;;21.80;49.90;;;;;;1584816;73;1379;-62
2023/04/28 08:12:55;;;;;;;;;;;21.80;49.80;;;;;;1589648;73;1400;-61
2023/04/28 08:14:57;;;;;;;;;;;21.80;49.90;;;;;;1589853;73;1443;-61
2023/04/28 08:16:59;;;;;;;;;;;21.80;49.70;;;;;;1587960;73;1383;-61
2023/04/28 08:19:00;;;;;;;;;;;21.80;49.80;;;;;;1587723;73;1384;-61
2023/04/28 08:21:02;;;;;;;;;;;21.80;49.80;;;;;;1588414;73;1277;-61
2023/04/28 08:23:04;;;;;;;;;;;21.80;49.80;;;;;;1589155;73;1262;-61
2023/04/28 08:25:06;;;;;;;;;;;21.70;49.80;;;;;;1597130;73;1941;-61
2023/04/28 08:27:08;;;;;;;;;;;21.80;49.60;;;;;;1578028;73;1362;-61
2023/04/28 08:29:11;;;;;;;;;;;21.70;49.70;;;;;;1583590;73;1364;-61
2023/04/28 08:31:12;;;;;;;;;;;21.70;49.80;;;;;;1584421;73;1384;-61
2023/04/28 08:33:14;;;;;;;;;;;21.70;49.70;;;;;;1590946;73;1354;-60
2023/04/28 08:35:18;;;;;;;;;;;21.70;49.70;;;;;;1593875;73;1146;-61
2023/04/28 08:37:20;;;;;;;;;;;21.70;49.70;;;;;;1589393;73;1514;-61
2023/04/28 08:39:22;;;;;;;;;;;21.70;49.60;;;;;;1584472;73;1369;-61
2023/04/28 08:41:26;;;;;;;;;;;21.70;49.70;;;;;;1593457;73;1226;-61
2023/04/28 08:43:29;;;;;;;;;;;21.60;49.50;;;;;;1592711;73;1944;-61
2023/04/28 08:45:30;;;;;;;;;;;21.60;49.50;;;;;;1586338;73;1249;-61
2023/04/28 08:47:35;;;;;;;;;;;21.70;49.70;;;;;;1558425;74;1455;-61
2023/04/28 08:49:37;;;;;;;;;;;21.70;49.60;;;;;;1577872;73;1384;-61
2023/04/28 08:51:41;;;;;;;;;;;21.70;49.60;;;;;;1593679;73;1386;-61
2023/04/28 08:53:44;;;;;;;;;;;21.70;49.60;;;;;;1592065;73;1554;-61
2023/04/28 08:55:46;;;;;;;;;;;21.60;49.50;;;;;;1591379;73;1395;-61
2023/04/28 08:57:49;;;;;;;;;;;21.60;49.60;;;;;;1580109;73;1565;-61
2023/04/28 08:59:51;;;;;;;;;;;21.60;49.60;;;;;;1586961;73;1207;-61
2023/04/28 09:01:52;;;;;;;;;;;21.60;49.50;;;;;;1583361;73;1358;-61
2023/04/28 09:03:54;;;;;;;;;;;21.50;49.50;;;;;;1596344;73;1946;-61
2023/04/28 09:05:56;;;;;;;;;;;21.50;49.50;;;;;;1585349;73;1378;-61
2023/04/28 09:07:58;;;;;;;;;;;21.60;49.50;;;;;;1580856;73;1368;-61
2023/04/28 09:10:19;;;;;;;;;;;21.50;49.50;;;;;;1589714;73;1374;-60
2023/04/28 09:12:23;;;;;;;;;;;21.50;49.50;;;;;;1596365;73;1191;-61
2023/04/28 09:14:25;;;;;;;;;;;21.50;49.40;;;;;;1580882;73;1359;-61
2023/04/28 09:16:28;;;;;;;;;;;21.60;49.50;;;;;;1579059;73;1212;-61
2023/04/28 09:18:34;;;;;;;;;;;21.60;49.50;;;;;;1578468;73;1777;-61
2023/04/28 09:20:34;;;;;;;;;;;21.60;49.40;;;;;;1584525;73;1541;-61
2023/04/28 09:22:36;;;;;;;;;;;21.50;49.50;;;;;;1589294;73;1373;-61
2023/04/28 09:24:42;;;;;;;;;;;21.50;49.40;;;;;;1583639;73;1992;-61
2023/04/28 09:26:50;;;;;;;;;;;21.50;49.50;;;;;;1593246;73;1341;-61
2023/04/28 09:28:56;;;;;;;;;;;21.50;49.50;;;;;;1582060;73;1367;-62
2023/04/28 09:30:55;;;;;;;;;;;21.50;49.50;;;;;;1593819;73;1585;-61
2023/04/28 09:33:04;;;;;;;;;;;21.50;49.60;;;;;;1587306;73;1369;-61
2023/04/28 09:35:06;;;;;;;;;;;21.40;49.40;;;;;;1585807;73;1360;-61
2023/04/28 09:37:16;;;;;;;;;;;21.50;49.60;;;;;;1591155;73;1336;-61
2023/04/28 09:39:19;;;;;;;;;;;21.50;49.50;;;;;;1583982;73;1431;-61
2023/04/28 09:41:21;;;;;;;;;;;21.40;49.50;;;;;;1588789;73;1553;-61
2023/04/28 09:43:28;;;;;;;;;;;21.50;49.70;;;;;;1583626;73;1395;-61
2023/04/28 09:45:30;;;;;;;;;;;21.40;49.60;;;;;;1584419;73;1950;-61
2023/04/28 09:47:33;;;;;;;;;;;21.40;49.60;;;;;;1562090;74;1397;-60
2023/04/28 09:49:37;;;;;;;;;;;21.40;49.60;;;;;;1591225;73;1353;-61
2023/04/28 09:51:39;;;;;;;;;;;21.40;50.00;;;;;;1589956;73;1603;-61
2023/04/28 09:53:41;;;;;;;;;;;21.30;50.10;;;;;;1590714;73;1355;-61
2023/04/28 09:55:43;;;;;;;;;;;21.30;50.00;;;;;;1591066;73;1198;-61
2023/04/28 09:57:45;;;;;;;;;;;21.30;50.00;;;;;;1591858;73;1349;-61
2023/04/28 09:59:48;;;;;;;;;;;21.40;50.00;;;;;;1594017;73;1111;-61
2023/04/28 10:01:50;;;;;;;;;;;21.40;50.00;;;;;;1588328;73;1559;-62
2023/04/28 10:03:52;;;;;;;;;;;21.40;50.00;;;;;;1589101;73;1360;-61
2023/04/28 10:05:55;;;;;;;;;;;21.40;50.00;;;;;;1585171;73;1941;-61
2023/04/28 10:07:59;;;;;;;;;;;21.50;50.10;;;;;;1563219;74;1535;-62
2023/04/28 10:10:00;;;;;;;;;;;21.40;50.00;;;;;;1592858;73;1583;-61
2023/04/28 10:12:02;;;;;;;;;;;21.40;50.00;;;;;;1587561;73;1369;-61
2023/04/28 10:14:04;;;;;;;;;;;21.40;50.00;;;;;;1582566;73;1378;-61
2023/04/28 10:16:06;;;;;;;;;;;21.40;49.90;;;;;;1593773;73;1381;-61
2023/04/28 10:18:09;;;;;;;;;;;21.40;50.00;;;;;;1591866;73;1293;-61
2023/04/28 10:20:11;;;;;;;;;;;21.40;49.90;;;;;;1573190;73;1356;-61
2023/04/28 10:22:31;;;;;;;;;;;21.40;49.90;;;;;;1584810;73;1406;-61
2023/04/28 10:24:33;;;;;;;;;;;21.40;49.80;;;;;;1589784;73;1942;-61
2023/04/28 10:26:52;;;;;;;;;;;21.40;49.80;;;;;;1579859;73;1361;-61
2023/04/28 10:28:54;;;;;;;;;;;21.40;49.90;;;;;;1574027;73;1253;-61
2023/04/28 10:31:08;;;;;;;;;;;21.40;50.00;;;;;;1588245;73;1285;-62
2023/04/28 10:33:15;;;;;;;;;;;21.40;50.00;;;;;;1591539;73;1389;-61
2023/04/28 10:35:35;;;;;;;;;;;21.40;49.90;;;;;;1587816;73;1494;-61
2023/04/28 10:37:54;;;;;;;;;;;21.40;50.00;;;;;;1584530;73;1381;-61
2023/04/28 10:40:14;;;;;;;;;;;21.30;50.00;;;;;;1580045;73;1397;-62
2023/04/28 10:42:34;;;;;;;;;;;21.30;50.10;;;;;;1593195;73;1227;-61
2023/04/28 10:44:38;;;;;;;;;;;21.40;50.10;;;;;;1587711;73;1945;-61
2023/04/28 10:46:58;;;;;;;;;;;21.30;50.20;;;;;;1586321;73;1396;-62
2023/04/28 10:49:00;;;;;;;;;;;21.30;50.20;;;;;;1587704;73;1384;-61
2023/04/28 10:51:08;;;;;;;;;;;21.30;50.20;;;;;;1588679;73;1356;-61
2023/04/28 10:53:10;;;;;;;;;;;21.30;50.30;;;;;;1590913;73;1370;-62
2023/04/28 10:55:36;;;;;;;;;;;21.30;50.30;;;;;;1585364;73;1375;-61
2023/04/28 10:57:30;;;;;;;;;;;21.20;50.20;;;;;;1577603;73;1333;-62
2023/04/28 10:59:32;;;;;;;;;;;21.20;50.30;;;;;;1595541;73;1368;-61
2023/04/28 11:01:35;;;;;;;;;;;21.20;50.30;;;;;;1594913;73;1372;-60
2023/04/28 11:03:39;;;;;;;;;;;21.30;50.40;;;;;;1592599;73;1420;-61
2023/04/28 11:05:41;;;;;;;;;;;21.30;50.50;;;;;;1585922;73;1968;-62
2023/04/28 11:07:44;;;;;;;;;;;21.20;50.30;;;;;;1564745;74;1414;-62
2023/04/28 11:09:48;;;;;;;;;;;21.20;50.40;;;;;;1584470;73;1370;-61
2023/04/28 11:12:09;;;;;;;;;;;21.20;50.50;;;;;;1581221;73;1231;-61
2023/04/28 11:14:20;;;;;;;;;;;21.30;50.70;;;;;;1575193;73;1542;-61
2023/04/28 11:16:23;;;;;;;;;;;21.30;50.60;;;;;;1573488;73;1440;-61
2023/04/28 11:18:25;;;;;;;;;;;21.30;50.60;;;;;;1589706;73;1316;-61
2023/04/28 11:20:27;;;;;;;;;;;21.20;50.40;;;;;;1594516;73;1407;-62
2023/04/28 11:22:29;;;;;;;;;;;21.20;50.50;;;;;;1586658;73;1374;-62
2023/04/28 11:24:31;;;;;;;;;;;21.20;50.40;;;;;;1587064;73;1951;-62
2023/04/28 11:26:36;;;;;;;;;;;21.30;50.50;;;;;;1584525;73;1361;-62
2023/04/28 11:28:41;;;;;;;;;;;21.30;50.60;;;;;;1587774;73;1347;-61
2023/04/28 11:30:43;;;;;;;;;;;21.20;50.50;;;;;;1592390;73;1668;-62
2023/04/28 11:32:45;;;;;;;;;;;21.40;50.60;;;;;;1586231;73;1376;-61
2023/04/28 11:34:48;;;;;;;;;;;21.30;50.70;;;;;;1546482;74;1372;-61
2023/04/28 11:36:50;;;;;;;;;;;21.20;50.70;;;;;;1585641;73;1767;-61
2023/04/28 11:38:52;;;;;;;;;;;21.30;50.80;;;;;;1577134;73;1365;-61
2023/04/28 11:40:57;;;;;;;;;;;21.30;50.90;;;;;;1581916;73;1458;-61
2023/04/28 11:43:00;;;;;;;;;;;21.30;50.90;;;;;;1588481;73;1368;-62
2023/04/28 11:45:03;;;;;;;;;;;21.30;51.00;;;;;;1582021;73;1945;-62
2023/04/28 11:47:05;;;;;;;;;;;21.30;51.00;;;;;;1594668;73;1031;-61
2023/04/28 11:49:06;;;;;;;;;;;21.30;51.00;;;;;;1576752;73;1323;-61
2023/04/28 11:51:08;;;;;;;;;;;21.30;51.10;;;;;;1587151;73;1367;-61
2023/04/28 11:53:10;;;;;;;;;;;21.30;51.10;;;;;;1583998;73;1360;-62
2023/04/28 11:55:12;;;;;;;;;;;21.40;51.10;;;;;;1593850;73;1361;-62
2023/04/28 11:57:20;;;;;;;;;;;21.30;51.20;;;;;;1554730;74;1345;-61
2023/04/28 11:59:25;;;;;;;;;;;21.30;51.20;;;;;;1589374;73;1400;-61
2023/04/28 12:01:27;;;;;;;;;;;21.20;51.20;;;;;;1587864;73;1360;-62
2023/04/28 12:03:29;;;;;;;;;;;21.20;51.30;;;;;;1594265;73;1352;-62
2023/04/28 12:05:33;;;;;;;;;;;21.30;51.40;;;;;;1584652;73;1936;-61
2023/04/28 12:07:42;;;;;;;;;;;21.30;51.50;;;;;;1585585;73;1370;-62